| time (UTC) | temp C | wind direction | speed KPH | gust KPH | rain 1hr cm | rain 24hr cm | rain mn cm | humidity % | barometer mb |
| 20260508084504 | 16 | 8 | 3.2 | 3.2 | 0.00 | 0.00 | 0.00 | 62 | 1018.1 |
| 20260508083024 | 18 | 192 | 1.6 | 3.2 | 0.00 | 0.00 | 0.00 | 58 | 1018.1 |
| 20260508081524 | 18 | 181 | 11.3 | 16.1 | 0.00 | 0.00 | 0.00 | 50 | 1018.1 |
| 20260508080004 | 18 | 183 | 12.9 | 16.1 | 0.00 | 0.00 | 0.00 | 48 | 1017.6 |
| 20260508074503 | 18 | 190 | 11.3 | 16.1 | 0.00 | 0.00 | 0.00 | 48 | 1017.4 |
| 20260508073024 | 18 | 182 | 12.9 | 16.1 | 0.00 | 0.00 | 0.00 | 48 | 1017.5 |
| 20260508071524 | 18 | 176 | 16.1 | 22.5 | 0.00 | 0.00 | 0.00 | 46 | 1017.4 |
| 20260508070005 | 18 | 168 | 14.5 | 20.9 | 0.00 | 0.00 | 0.00 | 47 | 1017.8 |
| 20260508064524 | 18 | 192 | 16.1 | 22.5 | 0.00 | 0.00 | 0.00 | 46 | 1017.7 |
| 20260508063004 | 17 | 187 | 14.5 | 20.9 | 0.00 | 0.00 | 0.00 | 44 | 1017.7 |
| 20260508061525 | 18 | 178 | 14.5 | 19.3 | 0.00 | 0.00 | 0.00 | 46 | 1017.6 |
| 20260508060004 | 17 | 193 | 12.9 | 19.3 | 0.00 | 0.00 | 0.00 | 46 | 1017.4 |
| 20260508054504 | 17 | 188 | 9.7 | 19.3 | 0.00 | 0.00 | 0.00 | 47 | 1017.1 |
| 20260508053004 | 17 | 203 | 11.3 | 19.3 | 0.00 | 0.00 | 0.00 | 46 | 1016.9 |
| 20260508051504 | 17 | 193 | 14.5 | 16.1 | 0.00 | 0.00 | 0.00 | 49 | 1016.5 |
| 20260508050004 | 17 | 185 | 9.7 | 19.3 | 0.00 | 0.00 | 0.00 | 49 | 1016.4 |
| 20260508044504 | 17 | 192 | 11.3 | 16.1 | 0.00 | 0.00 | 0.00 | 48 | 1016.6 |
| 20260508043004 | 17 | 207 | 11.3 | 16.1 | 0.00 | 0.00 | 0.00 | 46 | 1016.2 |
| 20260508041525 | 17 | 219 | 8.0 | 12.9 | 0.00 | 0.00 | 0.00 | 45 | 1016.1 |
| 20260508040005 | 17 | 183 | 8.0 | 16.1 | 0.00 | 0.00 | 0.00 | 45 | 1016.1 |
| 20260508034525 | 16 | 222 | 6.4 | 11.3 | 0.00 | 0.00 | 0.00 | 45 | 1016.0 |
| 20260508033004 | 16 | 221 | 6.4 | 12.9 | 0.00 | 0.00 | 0.00 | 45 | 1016.1 |
| 20260508031504 | 16 | 203 | 6.4 | 8.0 | 0.00 | 0.00 | 0.00 | 48 | 1016.1 |
| 20260508030025 | 17 | 224 | 6.4 | 9.7 | 0.00 | 0.00 | 0.00 | 43 | 1016.0 |
| 20260508024504 | 17 | 210 | 6.4 | 9.7 | 0.00 | 0.00 | 0.00 | 39 | 1016.0 |
| 20260508023025 | 17 | 208 | 6.4 | 9.7 | 0.00 | 0.00 | 0.00 | 38 | 1015.9 |
| 20260508021504 | 17 | 213 | 9.7 | 16.1 | 0.00 | 0.00 | 0.00 | 36 | 1016.0 |
| 20260508020005 | 16 | 207 | 4.8 | 6.4 | 0.00 | 0.00 | 0.00 | 40 | 1016.0 |
| 20260508014504 | 16 | 208 | 6.4 | 9.7 | 0.00 | 0.00 | 0.00 | 41 | 1016.1 |
| 20260508013004 | 16 | 233 | 4.8 | 9.7 | 0.00 | 0.00 | 0.00 | 46 | 1016.4 |
| 20260508011505 | 16 | 190 | 6.4 | 9.7 | 0.00 | 0.00 | 0.00 | 43 | 1016.6 |
| 20260508010005 | 15 | 229 | 3.2 | 6.4 | 0.00 | 0.00 | 0.00 | 49 | 1017.0 |
| 20260508004506 | 14 | 274 | 3.2 | 8.0 | 0.00 | 0.00 | 0.00 | 54 | 1017.3 |
| 20260508003005 | 15 | 260 | 4.8 | 8.0 | 0.00 | 0.00 | 0.00 | 51 | 1017.2 |
| 20260508001506 | 14 | 266 | 3.2 | 3.2 | 0.00 | 0.00 | 0.00 | 52 | 1017.4 |
| 20260508000006 | 15 | 335 | 4.8 | 8.0 | 0.00 | 0.00 | 0.00 | 51 | 1017.4 |
| 20260507234500 | 15 | 329 | 3.2 | 8.0 | 0.00 | 0.00 | 0.00 | 50 | 1017.5 |
| 20260507233000 | 15 | 319 | 4.8 | 8.0 | 0.00 | 0.00 | 0.00 | 47 | 1017.6 |
| 20260507231500 | 16 | 250 | 1.6 | 3.2 | 0.00 | 0.00 | 0.00 | 42 | 1017.3 |
| 20260507230001 | 16 | 194 | 4.8 | 8.0 | 0.00 | 0.00 | 0.00 | 40 | 1017.5 |
| 20260507224500 | 16 | 333 | 3.2 | 8.0 | 0.00 | 0.00 | 0.00 | 46 | 1017.8 |
| 20260507223000 | 17 | 235 | 1.6 | 6.4 | 0.00 | 0.00 | 0.00 | 35 | 1017.5 |
| 20260507221500 | 17 | 210 | 4.8 | 8.0 | 0.00 | 0.00 | 0.00 | 32 | 1017.5 |
| 20260507220022 | 18 | 199 | 6.4 | 9.7 | 0.00 | 0.00 | 0.00 | 30 | 1017.6 |
| 20260507214500 | 17 | 194 | 9.7 | 16.1 | 0.00 | 0.00 | 0.00 | 31 | 1017.6 |
| 20260507213000 | 17 | 209 | 8.0 | 16.1 | 0.00 | 0.00 | 0.00 | 33 | 1017.7 |
| 20260507211501 | 17 | 178 | 9.7 | 12.9 | 0.00 | 0.00 | 0.00 | 32 | 1017.6 |
| 20260507210012 | 17 | 193 | 14.5 | 22.5 | 0.00 | 0.00 | 0.00 | 32 | 1017.2 |
| 20260507204500 | 18 | 182 | 12.9 | 20.9 | 0.00 | 0.00 | 0.00 | 32 | 1017.3 |
| 20260507203000 | 18 | 161 | 12.9 | 19.3 | 0.00 | 0.00 | 0.00 | 31 | 1017.4 |
| 20260507201500 | 18 | 205 | 14.5 | 24.1 | 0.00 | 0.00 | 0.00 | 31 | 1017.6 |
| 20260507200002 | 18 | 194 | 12.9 | 19.3 | 0.00 | 0.00 | 0.00 | 29 | 1017.4 |
| 20260507194521 | 18 | 189 | 8.0 | 12.9 | 0.00 | 0.00 | 0.00 | 27 | 1017.6 |
| 20260507193000 | 18 | 194 | 8.0 | 11.3 | 0.00 | 0.00 | 0.00 | 27 | 1017.5 |
| 20260507191500 | 18 | 195 | 8.0 | 12.9 | 0.00 | 0.00 | 0.00 | 25 | 1017.4 |
| 20260507190003 | 17 | 186 | 6.4 | 9.7 | 0.00 | 0.00 | 0.00 | 32 | 1017.8 |
| 20260507184500 | 17 | 205 | 8.0 | 9.7 | 0.00 | 0.00 | 0.00 | 37 | 1017.8 |
| 20260507183001 | 17 | 205 | 8.0 | 12.9 | 0.00 | 0.00 | 0.00 | 36 | 1017.5 |
| 20260507181501 | 17 | 217 | 8.0 | 9.7 | 0.00 | 0.00 | 0.00 | 38 | 1017.5 |
| 20260507180023 | 17 | 247 | 4.8 | 9.7 | 0.00 | 0.00 | 0.00 | 36 | 1017.5 |
| 20260507174501 | 17 | 195 | 6.4 | 9.7 | 0.00 | 0.00 | 0.00 | 36 | 1017.2 |
| 20260507173001 | 17 | 218 | 8.0 | 11.3 | 0.00 | 0.00 | 0.00 | 36 | 1017.5 |
| 20260507171501 | 17 | 247 | 3.2 | 6.4 | 0.00 | 0.00 | 0.00 | 37 | 1017.5 |
| 20260507170002 | 17 | 181 | 6.4 | 9.7 | 0.00 | 0.00 | 0.00 | 37 | 1017.2 |
| 20260507164522 | 17 | 199 | 6.4 | 9.7 | 0.00 | 0.00 | 0.00 | 36 | 1017.0 |
| 20260507163001 | 18 | 216 | 4.8 | 9.7 | 0.00 | 0.00 | 0.00 | 42 | 1017.1 |
| 20260507161501 | 18 | 222 | 4.8 | 8.0 | 0.00 | 0.00 | 0.00 | 38 | 1017.2 |
| 20260507160001 | 18 | 234 | 4.8 | 8.0 | 0.00 | 0.00 | 0.00 | 38 | 1017.3 |
| 20260507154501 | 19 | 210 | 6.4 | 8.0 | 0.00 | 0.00 | 0.00 | 35 | 1017.0 |
| 20260507153001 | 20 | 195 | 6.4 | 12.9 | 0.00 | 0.00 | 0.00 | 36 | 1017.2 |
| 20260507151501 | 20 | 203 | 6.4 | 6.4 | 0.00 | 0.00 | 0.00 | 39 | 1017.0 |
| 20260507150002 | 20 | 171 | 8.0 | 12.9 | 0.00 | 0.00 | 0.00 | 38 | 1016.9 |
| 20260507144502 | 20 | 197 | 6.4 | 9.7 | 0.00 | 0.00 | 0.00 | 35 | 1016.8 |
| 20260507143001 | 21 | 216 | 8.0 | 12.9 | 0.00 | 0.00 | 0.00 | 32 | 1016.8 |
| 20260507141501 | 21 | 183 | 8.0 | 12.9 | 0.00 | 0.00 | 0.00 | 36 | 1016.6 |
| 20260507140023 | 22 | 194 | 6.4 | 9.7 | 0.00 | 0.00 | 0.00 | 37 | 1016.2 |
| 20260507134501 | 22 | 215 | 6.4 | 9.7 | 0.00 | 0.00 | 0.00 | 37 | 1016.0 |
| 20260507133002 | 22 | 211 | 4.8 | 8.0 | 0.00 | 0.00 | 0.00 | 33 | 1016.0 |
| 20260507131502 | 22 | 178 | 8.0 | 9.7 | 0.00 | 0.00 | 0.00 | 30 | 1016.0 |
| 20260507130004 | 21 | 187 | 6.4 | 9.7 | 0.00 | 0.00 | 0.00 | 32 | 1016.2 |
| 20260507124501 | 22 | 196 | 6.4 | 9.7 | 0.00 | 0.00 | 0.00 | 30 | 1016.4 |
| 20260507123002 | 23 | 183 | 6.4 | 8.0 | 0.00 | 0.00 | 0.00 | 29 | 1016.4 |
| 20260507121501 | 23 | 181 | 4.8 | 9.7 | 0.00 | 0.00 | 0.00 | 29 | 1016.5 |
| 20260507120002 | 23 | 206 | 6.4 | 12.9 | 0.00 | 0.00 | 0.00 | 30 | 1016.4 |
| 20260507114501 | 24 | 175 | 8.0 | 12.9 | 0.00 | 0.00 | 0.00 | 35 | 1016.3 |
| 20260507113002 | 25 | 188 | 8.0 | 12.9 | 0.00 | 0.00 | 0.00 | 39 | 1016.0 |
| 20260507111503 | 24 | 190 | 6.4 | 9.7 | 0.00 | 0.00 | 0.00 | 39 | 1016.3 |
| 20260507110003 | 24 | 177 | 8.0 | 9.7 | 0.00 | 0.00 | 0.00 | 39 | 1016.2 |
| 20260507104507 | 24 | 225 | 4.8 | 8.0 | 0.00 | 0.00 | 0.00 | 37 | 1016.1 |
| 20260507103002 | 23 | 213 | 6.4 | 11.3 | 0.00 | 0.00 | 0.00 | 40 | 1016.1 |
| 20260507101502 | 23 | 196 | 6.4 | 9.7 | 0.00 | 0.00 | 0.00 | 42 | 1016.2 |
| 20260507100003 | 23 | 174 | 8.0 | 12.9 | 0.00 | 0.00 | 0.00 | 38 | 1016.3 |
| 20260507094502 | 23 | 180 | 6.4 | 12.9 | 0.00 | 0.00 | 0.00 | 38 | 1016.2 |
| 20260507093003 | 23 | 212 | 6.4 | 16.1 | 0.00 | 0.00 | 0.00 | 43 | 1016.1 |
| 20260507091523 | 23 | 203 | 6.4 | 12.9 | 0.00 | 0.00 | 0.00 | 41 | 1016.2 |
| 20260507090004 | 23 | 203 | 4.8 | 6.4 | 0.00 | 0.00 | 0.00 | 43 | 1016.1 |